createdAt,value
2022-12-17T00:00:46.599Z,15.90
2022-12-17T00:02:37.065Z,16.00
2022-12-17T00:04:27.317Z,16.15
2022-12-17T00:06:17.687Z,15.55
2022-12-17T00:08:15.343Z,14.93
2022-12-17T00:10:05.772Z,15.70
2022-12-17T00:11:57.408Z,16.17
2022-12-17T00:13:47.783Z,14.82
2022-12-17T00:15:38.283Z,14.95
2022-12-17T00:17:28.644Z,15.20
2022-12-17T00:19:19.028Z,15.95
2022-12-17T00:21:13.520Z,14.80
2022-12-17T00:23:03.904Z,15.05
2022-12-17T00:24:54.378Z,15.10
2022-12-17T00:26:46.932Z,15.48
2022-12-17T00:28:38.518Z,16.25
2022-12-17T00:30:29.422Z,14.63
2022-12-17T00:32:20.250Z,15.60
2022-12-17T00:34:10.753Z,16.20
2022-12-17T00:36:01.239Z,15.48
2022-12-17T00:37:51.725Z,15.43
2022-12-17T00:39:42.455Z,16.38
2022-12-17T00:41:32.936Z,15.70
2022-12-17T00:43:25.182Z,14.77
2022-12-17T00:45:16.969Z,16.73
2022-12-17T00:47:07.351Z,17.40
2022-12-17T00:48:57.675Z,17.50
2022-12-17T00:50:48.000Z,15.32
2022-12-17T00:52:38.442Z,15.93
2022-12-17T00:54:29.953Z,14.27
2022-12-17T00:56:20.467Z,15.68
2022-12-17T00:58:12.058Z,14.93
2022-12-17T01:00:02.553Z,14.93
2022-12-17T01:01:54.341Z,13.77
2022-12-17T01:03:45.018Z,15.18
2022-12-17T01:05:40.524Z,15.15
2022-12-17T01:07:30.716Z,15.43
2022-12-17T01:09:21.142Z,16.08
2022-12-17T01:11:11.529Z,15.48
2022-12-17T01:13:02.027Z,14.50
2022-12-17T01:14:52.491Z,14.25
2022-12-17T01:16:43.145Z,13.88
2022-12-17T01:18:37.709Z,14.00
2022-12-17T01:20:33.883Z,14.68
2022-12-17T01:22:24.594Z,14.40
2022-12-17T01:24:15.116Z,13.68
2022-12-17T01:26:11.602Z,13.80
2022-12-17T01:28:02.015Z,14.02
2022-12-17T01:29:52.419Z,14.02
2022-12-17T01:31:42.733Z,14.27
2022-12-17T01:33:33.628Z,14.20
2022-12-17T01:35:26.210Z,13.75
2022-12-17T01:37:16.661Z,14.45
2022-12-17T01:39:07.124Z,14.05
2022-12-17T01:40:57.778Z,15.80
2022-12-17T01:42:56.402Z,13.35
2022-12-17T01:45:05.639Z,14.80
2022-12-17T01:46:59.847Z,14.20
2022-12-17T01:48:55.271Z,13.70
2022-12-17T01:50:50.796Z,14.30
2022-12-17T01:52:55.578Z,14.13
2022-12-17T01:54:46.078Z,15.50
2022-12-17T01:56:37.130Z,14.95
2022-12-17T01:58:27.527Z,14.50
2022-12-17T02:00:20.844Z,14.75
2022-12-17T02:02:11.514Z,15.55
2022-12-17T02:04:01.833Z,14.50
2022-12-17T02:06:03.063Z,14.55
2022-12-17T02:08:04.915Z,14.68
2022-12-17T02:10:09.614Z,15.30
2022-12-17T02:12:08.323Z,15.30
2022-12-17T02:14:02.473Z,15.27
2022-12-17T02:15:59.436Z,16.90
2022-12-17T02:17:54.937Z,16.02
2022-12-17T02:19:59.350Z,16.80
2022-12-17T02:21:53.080Z,16.50
2022-12-17T02:23:54.930Z,16.77
2022-12-17T02:25:54.986Z,18.83
2022-12-17T02:27:47.770Z,20.50
2022-12-17T02:29:39.956Z,16.85
2022-12-17T02:31:42.436Z,16.85
2022-12-17T02:33:47.450Z,15.90
2022-12-17T02:35:40.620Z,17.10
2022-12-17T02:37:31.091Z,18.70
2022-12-17T02:39:21.601Z,19.67
2022-12-17T02:41:12.075Z,20.35
2022-12-17T02:43:05.336Z,18.80
2022-12-17T02:44:56.982Z,17.27
2022-12-17T02:46:55.663Z,15.73
2022-12-17T02:48:46.570Z,15.57
2022-12-17T02:50:37.066Z,15.30
2022-12-17T02:52:34.590Z,13.95
2022-12-17T02:54:26.474Z,15.57
2022-12-17T02:56:16.592Z,15.35
2022-12-17T02:58:08.303Z,14.55
2022-12-17T02:59:58.815Z,15.88
2022-12-17T03:01:49.415Z,15.70
2022-12-17T03:03:40.146Z,15.00
2022-12-17T03:05:46.246Z,14.55
2022-12-17T03:07:36.826Z,14.23
2022-12-17T03:09:27.216Z,14.07
2022-12-17T03:11:18.172Z,14.63
2022-12-17T03:13:09.921Z,14.98
2022-12-17T03:15:00.341Z,14.65
2022-12-17T03:16:50.665Z,14.82
2022-12-17T03:18:41.051Z,14.68
2022-12-17T03:20:31.382Z,14.23
2022-12-17T03:22:21.840Z,14.57
2022-12-17T03:24:12.291Z,15.55
2022-12-17T03:26:02.697Z,16.98
2022-12-17T03:27:52.367Z,16.05
2022-12-17T03:29:58.647Z,14.18
2022-12-17T03:31:49.301Z,15.23
2022-12-17T03:33:39.515Z,14.10
2022-12-17T03:35:29.542Z,14.52
2022-12-17T03:37:20.008Z,13.70
2022-12-17T03:39:10.453Z,14.93
2022-12-17T03:41:00.938Z,14.60
2022-12-17T03:42:51.335Z,13.55
2022-12-17T03:44:41.684Z,14.25
2022-12-17T03:46:33.462Z,14.02
2022-12-17T03:48:25.351Z,13.95
2022-12-17T03:50:15.834Z,14.45
2022-12-17T03:52:06.286Z,14.70
2022-12-17T03:53:57.206Z,14.50
2022-12-17T03:55:47.754Z,14.43
2022-12-17T03:57:38.255Z,14.70
2022-12-17T03:59:29.020Z,13.75
2022-12-17T04:01:19.484Z,14.57
2022-12-17T04:03:11.510Z,14.50
2022-12-17T04:05:01.875Z,14.77
2022-12-17T04:06:52.323Z,14.38
2022-12-17T04:08:41.944Z,14.32
2022-12-17T04:10:46.791Z,13.75
2022-12-17T04:12:36.870Z,13.52
2022-12-17T04:14:27.595Z,15.13
2022-12-17T04:16:18.091Z,15.25
2022-12-17T04:18:08.638Z,13.05
2022-12-17T04:20:00.566Z,13.27
2022-12-17T04:21:50.875Z,13.73
2022-12-17T04:23:41.179Z,13.88
2022-12-17T04:25:31.521Z,13.65
2022-12-17T04:27:22.011Z,13.85
2022-12-17T04:29:12.544Z,14.10
2022-12-17T04:31:02.949Z,14.82
2022-12-17T04:32:53.378Z,14.98
2022-12-17T04:34:43.830Z,14.48
2022-12-17T04:36:35.549Z,14.02
2022-12-17T04:38:25.939Z,14.40
2022-12-17T04:40:16.407Z,14.75
2022-12-17T04:42:06.920Z,13.55
2022-12-17T04:44:01.288Z,14.45
2022-12-17T04:45:53.655Z,13.45
2022-12-17T04:47:46.889Z,13.57
2022-12-17T04:49:37.474Z,13.88
2022-12-17T04:51:27.989Z,13.90
2022-12-17T04:53:20.166Z,13.80
2022-12-17T04:55:10.790Z,13.73
2022-12-17T04:57:01.198Z,14.38
2022-12-17T04:58:51.697Z,13.00
2022-12-17T05:00:42.095Z,14.60
2022-12-17T05:02:32.575Z,13.80
2022-12-17T05:04:23.197Z,13.70
2022-12-17T05:06:13.688Z,14.43
2022-12-17T05:08:04.071Z,13.95
2022-12-17T05:10:01.225Z,14.32
2022-12-17T05:11:51.318Z,14.57
2022-12-17T05:13:41.774Z,14.27
2022-12-17T05:15:32.372Z,13.77
2022-12-17T05:17:22.815Z,14.00
2022-12-17T05:19:13.143Z,12.65
2022-12-17T05:21:03.486Z,13.68
2022-12-17T05:22:53.931Z,14.18
2022-12-17T05:24:44.235Z,14.45
2022-12-17T05:26:39.014Z,13.20
2022-12-17T05:28:29.318Z,13.20
2022-12-17T05:30:19.732Z,15.05
2022-12-17T05:32:10.041Z,14.32
2022-12-17T05:34:00.546Z,13.75
2022-12-17T05:35:50.902Z,14.43
2022-12-17T05:37:41.258Z,13.52
2022-12-17T05:39:31.598Z,14.15
2022-12-17T05:41:22.072Z,13.75
2022-12-17T05:43:17.607Z,13.77
2022-12-17T05:45:07.958Z,14.45
2022-12-17T05:46:57.677Z,13.55
2022-12-17T05:48:48.578Z,13.48
2022-12-17T05:50:38.966Z,14.35
2022-12-17T05:52:29.283Z,14.13
2022-12-17T05:54:19.780Z,13.68
2022-12-17T05:56:11.261Z,13.98
2022-12-17T05:58:13.142Z,14.32
2022-12-17T06:00:05.006Z,12.88
2022-12-17T06:01:55.531Z,14.25
2022-12-17T06:03:46.041Z,14.07
2022-12-17T06:05:36.244Z,13.95
2022-12-17T06:07:26.504Z,14.10
2022-12-17T06:09:16.911Z,12.85
2022-12-17T06:11:07.153Z,14.32
2022-12-17T06:12:57.630Z,13.07
2022-12-17T06:14:48.118Z,13.60
2022-12-17T06:16:40.124Z,13.15
2022-12-17T06:18:30.605Z,12.93
2022-12-17T06:20:21.042Z,14.45
2022-12-17T06:22:11.389Z,14.00
2022-12-17T06:24:01.706Z,13.48
2022-12-17T06:25:52.113Z,13.75
2022-12-17T06:27:42.421Z,13.45
2022-12-17T06:29:32.772Z,12.93
2022-12-17T06:31:23.204Z,13.70
2022-12-17T06:33:23.269Z,14.13
2022-12-17T06:35:13.801Z,13.95
2022-12-17T06:37:04.333Z,13.98
2022-12-17T06:38:54.710Z,13.90
2022-12-17T06:40:45.018Z,13.38
2022-12-17T06:42:35.416Z,13.07
2022-12-17T06:44:25.866Z,13.45
2022-12-17T06:46:16.355Z,13.25
2022-12-17T06:48:06.904Z,12.88
2022-12-17T06:50:01.461Z,13.65
2022-12-17T06:51:52.249Z,13.98
2022-12-17T06:53:42.882Z,13.48
2022-12-17T06:55:33.327Z,13.30
2022-12-17T06:57:23.762Z,13.70
2022-12-17T06:59:14.071Z,14.18
2022-12-17T07:01:05.054Z,13.43
2022-12-17T07:02:55.558Z,13.70
2022-12-17T07:04:45.881Z,13.73
2022-12-17T07:06:37.666Z,14.05
2022-12-17T07:08:28.203Z,13.25
2022-12-17T07:10:18.652Z,13.82
2022-12-17T07:12:09.165Z,13.30
2022-12-17T07:13:59.658Z,13.82
2022-12-17T07:15:50.030Z,14.30
2022-12-17T07:17:40.383Z,13.70
2022-12-17T07:19:30.769Z,13.55
2022-12-17T07:21:21.126Z,13.38
2022-12-17T07:23:14.828Z,14.07
2022-12-17T07:25:05.241Z,13.07
2022-12-17T07:26:55.662Z,13.55
2022-12-17T07:28:46.233Z,13.63
2022-12-17T07:30:36.671Z,14.48
2022-12-17T07:32:27.222Z,14.48
2022-12-17T07:34:17.712Z,14.35
2022-12-17T07:36:08.091Z,13.90
2022-12-17T07:37:58.446Z,14.25
2022-12-17T07:39:50.247Z,15.13
2022-12-17T07:41:40.556Z,15.43
2022-12-17T07:43:31.455Z,16.83
2022-12-17T07:45:21.785Z,16.95
2022-12-17T07:47:12.358Z,15.02
2022-12-17T07:49:02.972Z,14.77
2022-12-17T07:50:53.563Z,15.45
2022-12-17T07:52:43.952Z,15.27
2022-12-17T07:54:34.540Z,14.57
2022-12-17T07:56:26.350Z,15.00
2022-12-17T07:58:17.763Z,14.48
2022-12-17T08:00:08.196Z,15.15
2022-12-17T08:01:58.882Z,30.08
2022-12-17T08:03:49.353Z,16.50
2022-12-17T08:05:39.431Z,15.68
2022-12-17T08:07:29.894Z,15.75
2022-12-17T08:09:20.356Z,18.35
2022-12-17T08:11:10.929Z,17.63
2022-12-17T08:13:23.939Z,18.60
2022-12-17T08:15:14.496Z,17.17
2022-12-17T08:17:04.953Z,18.15
2022-12-17T08:18:55.498Z,18.30
2022-12-17T08:20:45.935Z,18.33
2022-12-17T08:22:36.245Z,20.00
2022-12-17T08:24:26.569Z,21.02
2022-12-17T08:26:17.025Z,17.80
2022-12-17T08:28:41.138Z,18.63
2022-12-17T08:30:26.436Z,18.23
2022-12-17T08:32:16.850Z,19.15
2022-12-17T08:34:08.272Z,16.92
2022-12-17T08:35:58.977Z,17.27
2022-12-17T08:37:49.536Z,16.27
2022-12-17T08:39:39.923Z,18.42
2022-12-17T08:41:30.294Z,17.40
2022-12-17T08:43:21.983Z,20.30
2022-12-17T08:45:11.576Z,19.25
2022-12-17T08:47:01.951Z,18.80
2022-12-17T08:48:52.456Z,18.73
2022-12-17T08:50:42.855Z,19.58
2022-12-17T08:52:33.285Z,17.58
2022-12-17T08:54:23.840Z,18.15
2022-12-17T08:56:14.227Z,21.92
2022-12-17T08:58:11.706Z,20.75
2022-12-17T09:00:03.362Z,18.35
2022-12-17T09:01:53.876Z,18.80
2022-12-17T09:03:44.446Z,18.63
2022-12-17T09:05:34.897Z,22.58
2022-12-17T09:07:25.287Z,21.48
2022-12-17T09:09:15.634Z,21.85
2022-12-17T09:11:06.148Z,18.38
2022-12-17T09:13:01.193Z,23.70
2022-12-17T09:14:54.451Z,25.52
2022-12-17T09:16:46.084Z,18.70
2022-12-17T09:18:37.143Z,21.85
2022-12-17T09:20:29.625Z,21.98
2022-12-17T09:22:19.910Z,23.75
2022-12-17T09:24:10.484Z,23.38
2022-12-17T09:26:01.016Z,24.50
2022-12-17T09:27:51.374Z,23.20
2022-12-17T09:29:41.870Z,24.90
2022-12-17T09:31:37.036Z,29.90
2022-12-17T09:33:33.405Z,22.55
2022-12-17T09:35:24.229Z,21.88
2022-12-17T09:37:14.863Z,21.00
2022-12-17T09:39:06.276Z,22.85
2022-12-17T09:40:57.502Z,23.60
2022-12-17T09:42:58.271Z,24.02
2022-12-17T09:45:00.423Z,25.33
2022-12-17T09:46:55.840Z,24.05
2022-12-17T09:48:56.592Z,21.63
2022-12-17T09:50:47.095Z,24.13
2022-12-17T09:52:42.364Z,53.33
2022-12-17T09:54:56.334Z,27.27
2022-12-17T09:56:51.286Z,22.65
2022-12-17T09:58:54.710Z,22.77
2022-12-17T10:00:47.248Z,21.80
2022-12-17T10:02:44.412Z,23.13
2022-12-17T10:04:42.619Z,28.33
2022-12-17T10:06:37.006Z,22.60
2022-12-17T10:08:32.235Z,23.40
2022-12-17T10:10:34.300Z,23.38
2022-12-17T10:12:32.301Z,68.82
2022-12-17T10:14:27.755Z,56.38
2022-12-17T10:16:18.346Z,28.60
2022-12-17T10:18:08.548Z,26.05
2022-12-17T10:20:01.085Z,45.40
2022-12-17T10:21:52.880Z,97.97
2022-12-17T10:23:44.893Z,45.28
2022-12-17T10:25:40.562Z,61.45
2022-12-17T10:27:36.240Z,40.10
2022-12-17T10:29:29.777Z,24.65
2022-12-17T10:31:20.969Z,26.40
2022-12-17T10:33:13.901Z,26.50
2022-12-17T10:35:05.958Z,23.17
2022-12-17T10:36:56.229Z,22.65
2022-12-17T10:38:48.452Z,21.90
2022-12-17T10:40:43.931Z,22.95
2022-12-17T10:42:39.860Z,22.95
2022-12-17T10:44:44.517Z,23.10
2022-12-17T10:46:43.375Z,22.75
2022-12-17T10:48:41.370Z,22.23
2022-12-17T10:50:35.731Z,23.40
2022-12-17T10:52:43.744Z,23.30
2022-12-17T10:54:47.025Z,22.20
2022-12-17T10:56:43.526Z,25.85
2022-12-17T10:58:35.788Z,23.60
2022-12-17T11:00:44.264Z,25.17
2022-12-17T11:02:44.168Z,20.92
2022-12-17T11:04:45.865Z,20.70
2022-12-17T11:06:43.616Z,22.85
2022-12-17T11:08:34.661Z,22.67
2022-12-17T11:10:34.101Z,22.60
2022-12-17T11:12:30.792Z,21.42
2022-12-17T11:14:24.208Z,24.40
2022-12-17T11:16:17.040Z,23.00
2022-12-17T11:18:11.558Z,21.65
2022-12-17T11:20:08.095Z,21.38
2022-12-17T11:22:03.469Z,20.67
2022-12-17T11:23:56.548Z,21.20
2022-12-17T11:25:57.489Z,21.95
2022-12-17T11:27:53.019Z,21.33
2022-12-17T11:29:43.559Z,23.33
2022-12-17T11:32:05.327Z,21.48
2022-12-17T11:34:03.567Z,23.73
2022-12-17T11:36:00.274Z,23.23
2022-12-17T11:37:57.265Z,23.98
2022-12-17T11:39:54.844Z,24.48
2022-12-17T11:41:55.507Z,24.23
2022-12-17T11:43:52.907Z,25.35
2022-12-17T11:45:49.789Z,23.17
2022-12-17T11:47:48.275Z,23.70
2022-12-17T11:49:52.059Z,23.02
2022-12-17T11:51:49.405Z,21.45
2022-12-17T11:54:04.467Z,23.13
2022-12-17T11:56:00.760Z,22.45
2022-12-17T11:58:02.315Z,21.25
2022-12-17T12:00:03.626Z,22.88
2022-12-17T12:02:02.810Z,21.88
2022-12-17T12:04:02.139Z,24.60
2022-12-17T12:05:59.468Z,24.92
2022-12-17T12:07:54.534Z,21.88
2022-12-17T12:09:52.210Z,22.13
2022-12-17T12:11:49.057Z,22.83
2022-12-17T12:13:49.551Z,21.58
2022-12-17T12:15:49.288Z,23.80
2022-12-17T12:17:51.300Z,21.23
2022-12-17T12:19:48.845Z,23.10
2022-12-17T12:21:55.267Z,24.45
2022-12-17T12:23:54.822Z,23.13
2022-12-17T12:25:55.789Z,22.65
2022-12-17T12:27:52.631Z,26.30
2022-12-17T12:29:51.093Z,22.48
2022-12-17T12:31:50.444Z,23.02
2022-12-17T12:33:49.294Z,23.50
2022-12-17T12:35:44.176Z,23.00
2022-12-17T12:37:37.233Z,22.15
2022-12-17T12:39:30.823Z,24.33
2022-12-17T12:41:30.249Z,22.45
2022-12-17T12:43:28.207Z,23.33
2022-12-17T12:45:23.263Z,22.55
2022-12-17T12:47:17.688Z,22.73
2022-12-17T12:49:16.043Z,23.38
2022-12-17T12:51:12.522Z,23.70
2022-12-17T12:53:03.464Z,24.83
2022-12-17T12:55:10.557Z,24.60
2022-12-17T12:57:02.040Z,22.23
2022-12-17T12:58:53.324Z,22.90
2022-12-17T13:00:49.894Z,24.42
2022-12-17T13:02:45.217Z,23.63
2022-12-17T13:04:47.775Z,25.35
2022-12-17T13:06:40.051Z,39.75
2022-12-17T13:08:24.328Z,30.70
2022-12-17T13:09:58.849Z,29.38
2022-12-17T13:11:38.555Z,25.48
2022-12-17T13:13:18.606Z,26.70
2022-12-17T13:14:56.582Z,24.27
2022-12-17T13:16:52.865Z,38.38
2022-12-17T13:18:30.629Z,30.23
2022-12-17T13:20:20.775Z,29.80
2022-12-17T13:21:53.523Z,33.83
2022-12-17T13:23:30.073Z,28.17
2022-12-17T13:25:19.276Z,31.40
2022-12-17T13:26:52.387Z,35.35
2022-12-17T13:28:31.633Z,25.45
2022-12-17T13:30:21.604Z,23.42
2022-12-17T13:32:03.897Z,33.17
2022-12-17T13:33:46.774Z,37.20
2022-12-17T13:35:30.425Z,45.17
2022-12-17T13:37:08.567Z,42.95
2022-12-17T13:38:51.188Z,26.92
2022-12-17T13:40:45.802Z,24.58
2022-12-17T13:42:23.097Z,28.02
2022-12-17T13:43:59.617Z,23.13
2022-12-17T13:45:38.265Z,31.33
2022-12-17T13:47:21.390Z,29.60
2022-12-17T13:48:56.320Z,33.20
2022-12-17T13:50:34.403Z,27.95
2022-12-17T13:52:17.621Z,28.65
2022-12-17T13:53:55.218Z,26.73
2022-12-17T13:55:30.603Z,30.33
2022-12-17T13:57:10.891Z,30.45
2022-12-17T13:58:44.143Z,29.10
2022-12-17T14:00:23.933Z,30.20
2022-12-17T14:01:56.746Z,27.88
2022-12-17T14:03:49.978Z,27.08
2022-12-17T14:05:28.256Z,27.25
2022-12-17T14:07:06.307Z,30.73
2022-12-17T14:08:39.669Z,26.40
2022-12-17T14:10:17.328Z,26.98
2022-12-17T14:12:08.161Z,26.70
2022-12-17T14:13:41.336Z,30.25
2022-12-17T14:15:25.354Z,28.63
2022-12-17T14:16:58.242Z,28.20
2022-12-17T14:18:31.084Z,28.13
2022-12-17T14:20:07.427Z,29.98
2022-12-17T14:21:41.162Z,28.20
2022-12-17T14:23:24.050Z,29.90
2022-12-17T14:24:56.849Z,27.08
2022-12-17T14:26:29.697Z,27.45
2022-12-17T14:28:04.321Z,28.55
2022-12-17T14:29:47.275Z,27.65
2022-12-17T14:31:28.174Z,26.67
2022-12-17T14:33:01.394Z,27.70
2022-12-17T14:34:42.078Z,26.90
2022-12-17T14:36:23.535Z,27.90
2022-12-17T14:37:56.486Z,27.48
2022-12-17T14:39:32.156Z,28.35
2022-12-17T14:41:29.806Z,29.25
2022-12-17T14:43:02.039Z,26.88
2022-12-17T14:44:35.202Z,25.92
2022-12-17T14:46:22.913Z,25.52
2022-12-17T14:47:59.036Z,26.15
2022-12-17T14:49:30.782Z,26.60
2022-12-17T14:51:03.577Z,26.67
2022-12-17T14:52:42.500Z,27.35
2022-12-17T14:54:20.747Z,26.75
2022-12-17T14:55:55.872Z,25.15
2022-12-17T14:57:28.727Z,24.33
2022-12-17T14:59:02.413Z,27.00
2022-12-17T15:00:35.707Z,26.20
2022-12-17T15:02:20.622Z,26.52
2022-12-17T15:03:56.789Z,25.73
2022-12-17T15:05:29.639Z,26.15
2022-12-17T15:07:02.402Z,31.33
2022-12-17T15:08:37.486Z,29.10
2022-12-17T15:10:11.699Z,27.45
2022-12-17T15:11:44.407Z,25.17
2022-12-17T15:13:17.160Z,29.77
2022-12-17T15:14:49.878Z,27.55
2022-12-17T15:16:22.685Z,29.60
2022-12-17T15:17:55.513Z,29.40
2022-12-17T15:19:29.606Z,29.23
2022-12-17T15:21:03.580Z,27.70
2022-12-17T15:22:41.532Z,28.52
2022-12-17T15:24:19.535Z,30.20
2022-12-17T15:25:53.647Z,27.95
2022-12-17T15:27:26.369Z,28.83
2022-12-17T15:28:59.090Z,29.55
2022-12-17T15:30:31.860Z,27.90
2022-12-17T15:32:04.899Z,27.33
2022-12-17T15:33:37.660Z,29.55
2022-12-17T15:35:13.023Z,30.05
2022-12-17T15:36:45.771Z,29.55
2022-12-17T15:38:18.494Z,29.63
2022-12-17T15:39:51.913Z,29.13
2022-12-17T15:41:42.303Z,28.92
2022-12-17T15:43:15.852Z,28.40
2022-12-17T15:44:49.598Z,31.10
2022-12-17T15:46:22.819Z,28.13
2022-12-17T15:47:55.567Z,30.63
2022-12-17T15:49:29.108Z,31.85
2022-12-17T15:51:03.143Z,29.38
2022-12-17T15:52:35.888Z,28.48
2022-12-17T15:54:08.727Z,29.83
2022-12-17T15:55:41.752Z,33.83
2022-12-17T15:57:18.559Z,29.70
2022-12-17T15:58:51.916Z,30.33
2022-12-17T16:00:25.302Z,30.63
2022-12-17T16:01:58.345Z,30.67
2022-12-17T16:03:31.384Z,31.77
2022-12-17T16:05:05.077Z,43.92
2022-12-17T16:06:39.302Z,48.28
2022-12-17T16:08:12.093Z,35.90
2022-12-17T16:09:44.993Z,33.63
2022-12-17T16:11:17.723Z,31.98
2022-12-17T16:12:50.511Z,30.83
2022-12-17T16:14:23.653Z,32.85
2022-12-17T16:16:03.414Z,33.00
2022-12-17T16:17:37.213Z,30.77
2022-12-17T16:19:10.387Z,30.23
2022-12-17T16:20:43.118Z,30.05
2022-12-17T16:22:17.275Z,29.23
2022-12-17T16:23:50.267Z,29.15
2022-12-17T16:25:23.272Z,29.45
2022-12-17T16:27:00.832Z,31.92
2022-12-17T16:28:37.540Z,31.67
2022-12-17T16:30:12.418Z,30.35
2022-12-17T16:31:46.069Z,30.48
2022-12-17T16:33:18.767Z,30.92
2022-12-17T16:34:51.490Z,31.60
2022-12-17T16:36:24.553Z,29.95
2022-12-17T16:37:58.603Z,30.25
2022-12-17T16:39:31.318Z,29.42
2022-12-17T16:41:05.098Z,33.03
2022-12-17T16:42:37.963Z,30.40
2022-12-17T16:44:10.702Z,29.98
2022-12-17T16:45:49.072Z,29.63
2022-12-17T16:47:21.833Z,32.03
2022-12-17T16:48:55.672Z,29.25
2022-12-17T16:50:29.603Z,30.08
2022-12-17T16:52:03.329Z,29.77
2022-12-17T16:53:37.383Z,31.25
2022-12-17T16:55:10.751Z,30.77
2022-12-17T16:56:45.272Z,30.08
2022-12-17T16:58:19.038Z,32.38
2022-12-17T16:59:51.788Z,29.52
2022-12-17T17:01:28.383Z,30.65
2022-12-17T17:03:01.391Z,29.88
2022-12-17T17:04:35.259Z,30.92
2022-12-17T17:06:08.168Z,31.83
2022-12-17T17:07:40.874Z,32.83
2022-12-17T17:09:15.992Z,33.50
2022-12-17T17:10:48.693Z,36.95
2022-12-17T17:12:21.475Z,34.70
2022-12-17T17:13:55.420Z,29.67
2022-12-17T17:15:28.171Z,30.88
2022-12-17T17:17:00.902Z,32.42
2022-12-17T17:18:34.284Z,32.63
2022-12-17T17:20:07.846Z,33.38
2022-12-17T17:21:42.079Z,31.40
2022-12-17T17:23:14.803Z,32.90
2022-12-17T17:24:49.098Z,31.77
2022-12-17T17:26:21.142Z,32.42
2022-12-17T17:27:53.858Z,32.03
2022-12-17T17:29:26.773Z,32.35
2022-12-17T17:31:00.217Z,42.58
2022-12-17T17:32:33.037Z,35.28
2022-12-17T17:34:10.115Z,35.75
2022-12-17T17:35:42.834Z,33.20
2022-12-17T17:37:15.551Z,33.65
2022-12-17T17:38:50.199Z,35.38
2022-12-17T17:40:24.250Z,34.47
2022-12-17T17:41:57.123Z,33.35
2022-12-17T17:43:30.104Z,31.67
2022-12-17T17:45:03.329Z,35.75
2022-12-17T17:46:36.359Z,32.20
2022-12-17T17:48:09.122Z,34.08
2022-12-17T17:49:41.865Z,31.75
2022-12-17T17:51:16.527Z,34.90
2022-12-17T17:52:49.232Z,33.30
2022-12-17T17:54:21.987Z,30.85
2022-12-17T17:55:56.614Z,32.97
2022-12-17T17:57:29.347Z,32.17
2022-12-17T17:59:04.569Z,31.55
2022-12-17T18:00:38.719Z,32.60
2022-12-17T18:02:12.192Z,32.00
2022-12-17T18:03:45.762Z,31.73
2022-12-17T18:05:18.567Z,31.77
2022-12-17T18:07:23.658Z,31.48
2022-12-17T18:08:45.901Z,29.25
2022-12-17T18:10:18.815Z,28.42
2022-12-17T18:11:52.921Z,31.95
2022-12-17T18:13:43.066Z,31.60
2022-12-17T18:15:19.279Z,28.65
2022-12-17T18:16:52.069Z,31.50
2022-12-17T18:18:24.779Z,31.70
2022-12-17T18:19:57.560Z,29.10
2022-12-17T18:21:32.175Z,34.35
2022-12-17T18:23:04.890Z,34.38
2022-12-17T18:24:37.589Z,34.55
2022-12-17T18:26:12.606Z,34.63
2022-12-17T18:27:46.675Z,34.70
2022-12-17T18:29:21.869Z,34.05
2022-12-17T18:30:54.933Z,34.22
2022-12-17T18:32:27.745Z,34.55
2022-12-17T18:34:03.674Z,32.15
2022-12-17T18:35:36.417Z,29.70
2022-12-17T18:37:09.118Z,30.77
2022-12-17T18:38:42.135Z,35.17
2022-12-17T18:40:15.274Z,34.67
2022-12-17T18:42:07.236Z,31.38
2022-12-17T18:43:42.143Z,31.63
2022-12-17T18:45:14.978Z,34.00
2022-12-17T18:46:47.903Z,36.75
2022-12-17T18:48:21.086Z,36.42
2022-12-17T18:49:54.007Z,33.75
2022-12-17T18:51:27.778Z,36.08
2022-12-17T18:53:00.495Z,36.08
2022-12-17T18:54:34.641Z,37.55
2022-12-17T18:56:09.205Z,33.50
2022-12-17T18:57:41.945Z,39.13
2022-12-17T18:59:18.631Z,34.83
2022-12-17T19:00:51.409Z,31.52
2022-12-17T19:02:24.529Z,32.03
2022-12-17T19:03:58.274Z,31.10
2022-12-17T19:05:31.520Z,32.08
2022-12-17T19:07:04.279Z,30.02
2022-12-17T19:08:37.457Z,27.65
2022-12-17T19:10:11.287Z,28.88
2022-12-17T19:11:44.298Z,28.30
2022-12-17T19:13:17.099Z,31.27
2022-12-17T19:14:51.156Z,31.50
2022-12-17T19:16:25.698Z,32.33
2022-12-17T19:17:58.422Z,28.85
2022-12-17T19:19:31.444Z,40.80
2022-12-17T19:21:04.636Z,28.38
2022-12-17T19:22:37.572Z,30.75
2022-12-17T19:24:14.170Z,31.27
2022-12-17T19:25:47.100Z,30.73
2022-12-17T19:27:19.992Z,33.83
2022-12-17T19:28:54.688Z,31.88
2022-12-17T19:30:28.982Z,30.77
2022-12-17T19:32:01.906Z,31.85
2022-12-17T19:33:34.879Z,29.63
2022-12-17T19:35:08.600Z,37.25
2022-12-17T19:36:42.412Z,33.47
2022-12-17T19:38:15.138Z,35.20
2022-12-17T19:39:48.518Z,30.40
2022-12-17T19:41:22.264Z,32.08
2022-12-17T19:42:56.266Z,29.27
2022-12-17T19:44:29.106Z,31.50
2022-12-17T19:46:08.293Z,31.58
2022-12-17T19:47:41.047Z,30.88
2022-12-17T19:49:14.693Z,29.10
2022-12-17T19:50:56.548Z,29.92
2022-12-17T19:52:29.426Z,27.08
2022-12-17T19:54:08.420Z,27.95
2022-12-17T19:55:41.995Z,27.58
2022-12-17T19:57:15.137Z,29.30
2022-12-17T19:58:50.678Z,28.90
2022-12-17T20:00:23.416Z,31.77
2022-12-17T20:01:58.567Z,28.50
2022-12-17T20:03:31.629Z,29.63
2022-12-17T20:05:04.752Z,29.67
2022-12-17T20:06:37.695Z,30.58
2022-12-17T20:08:10.730Z,27.88
2022-12-17T20:09:44.648Z,29.20
2022-12-17T20:11:34.640Z,28.00
2022-12-17T20:13:07.750Z,26.50
2022-12-17T20:14:40.502Z,27.80
2022-12-17T20:16:13.246Z,28.20
2022-12-17T20:17:47.370Z,30.38
2022-12-17T20:19:22.067Z,30.88
2022-12-17T20:21:02.800Z,32.60
2022-12-17T20:22:35.499Z,33.33
2022-12-17T20:24:08.499Z,33.28
2022-12-17T20:25:41.211Z,35.67
2022-12-17T20:27:14.194Z,28.67
2022-12-17T20:28:47.772Z,27.90
2022-12-17T20:30:20.502Z,37.95
2022-12-17T20:31:54.475Z,31.13
2022-12-17T20:33:29.477Z,76.35
2022-12-17T20:35:02.366Z,55.30
2022-12-17T20:36:36.184Z,35.72
2022-12-17T20:38:09.113Z,45.75
2022-12-17T20:39:41.853Z,45.97
2022-12-17T20:41:16.866Z,36.70
2022-12-17T20:42:52.017Z,46.53
2022-12-17T20:44:24.925Z,30.80
2022-12-17T20:45:58.096Z,30.60
2022-12-17T20:47:31.317Z,29.73
2022-12-17T20:49:06.334Z,31.13
2022-12-17T20:50:41.023Z,33.78
2022-12-17T20:52:13.731Z,57.50
2022-12-17T20:53:47.280Z,47.53
2022-12-17T20:55:20.272Z,46.35
2022-12-17T20:56:52.990Z,47.20
2022-12-17T20:58:25.992Z,39.45
2022-12-17T20:59:58.792Z,31.67
2022-12-17T21:01:34.153Z,39.08
2022-12-17T21:03:07.287Z,30.67
2022-12-17T21:04:41.722Z,29.83
2022-12-17T21:06:17.403Z,32.47
2022-12-17T21:07:51.234Z,32.78
2022-12-17T21:09:25.261Z,32.15
2022-12-17T21:10:58.396Z,32.15
2022-12-17T21:12:51.183Z,34.25
2022-12-17T21:14:23.956Z,32.72
2022-12-17T21:15:57.530Z,32.50
2022-12-17T21:17:30.465Z,29.98
2022-12-17T21:19:04.649Z,27.73
2022-12-17T21:20:38.903Z,32.85
2022-12-17T21:22:15.036Z,31.58
2022-12-17T21:23:48.774Z,29.00
2022-12-17T21:25:24.049Z,31.23
2022-12-17T21:26:56.860Z,32.08
2022-12-17T21:28:29.258Z,31.35
2022-12-17T21:30:06.225Z,29.10
2022-12-17T21:31:43.637Z,30.35
2022-12-17T21:33:16.418Z,28.10
2022-12-17T21:34:49.312Z,31.95
2022-12-17T21:36:24.501Z,30.48
2022-12-17T21:37:57.237Z,29.55
2022-12-17T21:39:30.086Z,28.55
2022-12-17T21:41:05.894Z,27.42
2022-12-17T21:42:56.454Z,27.73
2022-12-17T21:44:30.524Z,25.30
2022-12-17T21:46:03.608Z,29.20
2022-12-17T21:47:37.145Z,26.88
2022-12-17T21:49:11.052Z,26.25
2022-12-17T21:50:45.692Z,27.08
2022-12-17T21:52:20.832Z,28.75
2022-12-17T21:53:55.227Z,27.50
2022-12-17T21:55:28.221Z,29.65
2022-12-17T21:57:01.148Z,29.58
2022-12-17T21:58:34.288Z,27.25
2022-12-17T22:00:09.083Z,31.90
2022-12-17T22:01:42.030Z,29.48
2022-12-17T22:03:15.623Z,28.38
2022-12-17T22:04:48.390Z,27.10
2022-12-17T22:06:24.186Z,31.05
2022-12-17T22:08:00.162Z,31.92
2022-12-17T22:09:37.260Z,37.33
2022-12-17T22:11:26.972Z,30.00
2022-12-17T22:13:17.145Z,29.98
2022-12-17T22:14:48.908Z,29.45
2022-12-17T22:16:21.634Z,39.85
2022-12-17T22:17:55.295Z,31.77
2022-12-17T22:19:28.783Z,30.70
2022-12-17T22:21:03.076Z,28.70
2022-12-17T22:22:36.588Z,28.65
2022-12-17T22:24:13.932Z,30.52
2022-12-17T22:25:46.648Z,30.92
2022-12-17T22:27:19.363Z,31.40
2022-12-17T22:28:52.082Z,29.77
2022-12-17T22:30:42.829Z,29.48
2022-12-17T22:32:34.036Z,34.50